createdAt,value
2023-04-14T00:01:02.549Z,8.55
2023-04-14T00:03:29.618Z,8.55
2023-04-14T00:05:56.544Z,8.49
2023-04-14T00:08:23.092Z,8.15
2023-04-14T00:10:49.654Z,8.35
2023-04-14T00:13:16.301Z,8.30
2023-04-14T00:15:42.925Z,8.35
2023-04-14T00:18:09.512Z,7.63
2023-04-14T00:20:36.069Z,8.30
2023-04-14T00:23:02.662Z,8.29
2023-04-14T00:25:29.250Z,8.18
2023-04-14T00:27:56.097Z,8.16
2023-04-14T00:30:22.832Z,8.16
2023-04-14T00:32:49.404Z,7.74
2023-04-14T00:35:16.117Z,8.02
2023-04-14T00:37:42.703Z,8.10
2023-04-14T00:40:10.108Z,7.85
2023-04-14T00:42:46.895Z,7.99
2023-04-14T00:45:15.051Z,7.79
2023-04-14T00:47:46.961Z,8.03
2023-04-14T00:53:05.831Z,8.02
2023-04-14T00:55:33.732Z,7.75
2023-04-14T00:58:01.575Z,7.78
2023-04-14T01:00:28.691Z,7.99
2023-04-14T01:02:55.438Z,7.79
2023-04-14T01:05:22.425Z,7.92
2023-04-14T01:07:49.786Z,7.59
2023-04-14T01:10:16.746Z,7.76
2023-04-14T01:12:46.487Z,7.82
2023-04-14T01:15:35.748Z,7.82
2023-04-14T01:18:14.745Z,7.81
2023-04-14T01:20:43.839Z,7.74
2023-04-14T01:23:21.807Z,7.65
2023-04-14T01:26:09.379Z,7.64
2023-04-14T01:29:00.191Z,6.62
2023-04-14T01:31:32.701Z,6.85
2023-04-14T01:34:09.769Z,7.43
2023-04-14T01:37:05.128Z,7.46
2023-04-14T01:39:36.620Z,7.16
2023-04-14T01:42:06.823Z,7.51
2023-04-14T01:44:35.544Z,7.28
2023-04-14T01:47:05.965Z,7.49
2023-04-14T01:49:35.669Z,7.14
2023-04-14T01:52:04.860Z,7.49
2023-04-14T01:54:33.562Z,7.46
2023-04-14T01:57:03.219Z,7.43
2023-04-14T01:59:31.285Z,7.47
2023-04-14T02:02:01.694Z,7.18
2023-04-14T02:04:31.163Z,7.04
2023-04-14T02:07:00.474Z,7.35
2023-04-14T02:09:28.400Z,6.68
2023-04-14T02:11:55.965Z,7.34
2023-04-14T02:14:24.679Z,6.33
2023-04-14T02:16:53.916Z,7.32
2023-04-14T02:19:23.112Z,6.87
2023-04-14T02:21:51.439Z,7.24
2023-04-14T02:24:18.870Z,7.17
2023-04-14T02:26:58.422Z,7.03
2023-04-14T02:29:27.772Z,6.84
2023-04-14T02:32:04.407Z,7.06
2023-04-14T02:34:37.904Z,6.72
2023-04-14T02:37:10.200Z,6.63
2023-04-14T02:39:43.654Z,6.88
2023-04-14T02:42:15.949Z,6.91
2023-04-14T02:44:52.149Z,6.63
2023-04-14T02:47:27.172Z,6.89
2023-04-14T02:49:56.571Z,6.84
2023-04-14T02:52:25.587Z,6.90
2023-04-14T02:54:54.083Z,6.64
2023-04-14T02:57:21.956Z,6.88
2023-04-14T02:59:49.769Z,5.80
2023-04-14T03:02:17.846Z,6.79
2023-04-14T03:04:44.914Z,6.32
2023-04-14T03:07:13.512Z,6.78
2023-04-14T03:09:42.436Z,6.72
2023-04-14T03:12:14.644Z,6.79
2023-04-14T03:14:43.165Z,6.81
2023-04-14T03:17:11.399Z,6.79
2023-04-14T03:19:40.898Z,6.72
2023-04-14T03:22:13.097Z,6.72
2023-04-14T03:24:42.272Z,6.75
2023-04-14T03:27:12.419Z,6.78
2023-04-14T03:29:46.705Z,6.51
2023-04-14T03:32:17.728Z,5.67
2023-04-14T03:34:48.423Z,6.71
2023-04-14T03:37:18.165Z,6.31
2023-04-14T03:39:47.853Z,6.68
2023-04-14T03:42:14.937Z,6.58
2023-04-14T03:44:46.338Z,6.57
2023-04-14T03:47:14.721Z,6.42
2023-04-14T03:49:46.998Z,6.27
2023-04-14T03:52:16.997Z,6.13
2023-04-14T03:54:46.607Z,6.44
2023-04-14T03:57:17.728Z,6.48
2023-04-14T03:59:47.319Z,6.53
2023-04-14T04:02:15.229Z,6.39
2023-04-14T04:04:43.457Z,6.16
2023-04-14T04:07:13.679Z,6.49
2023-04-14T04:09:42.974Z,6.50
2023-04-14T04:12:13.310Z,6.40
2023-04-14T04:14:42.814Z,6.46
2023-04-14T04:17:12.624Z,6.39
2023-04-14T04:19:40.298Z,6.43
2023-04-14T04:22:08.692Z,6.30
2023-04-14T04:24:40.607Z,6.36
2023-04-14T04:27:17.168Z,6.41
2023-04-14T04:29:51.654Z,6.44
2023-04-14T04:32:18.532Z,6.45
2023-04-14T04:34:46.840Z,6.25
2023-04-14T04:37:14.343Z,6.45
2023-04-14T04:39:40.940Z,6.31
2023-04-14T04:42:07.758Z,6.58
2023-04-14T04:44:35.345Z,6.68
2023-04-14T04:47:02.698Z,6.52
2023-04-14T04:49:29.649Z,6.56
2023-04-14T04:51:57.228Z,6.18
2023-04-14T04:54:23.981Z,6.51
2023-04-14T04:56:50.633Z,6.45
2023-04-14T04:59:17.613Z,6.45
2023-04-14T05:01:44.334Z,6.12
2023-04-14T05:04:11.929Z,6.57
2023-04-14T05:06:38.836Z,6.67
2023-04-14T05:09:06.195Z,6.74
2023-04-14T05:11:33.851Z,6.59
2023-04-14T05:14:00.723Z,6.71
2023-04-14T05:16:28.457Z,6.90
2023-04-14T05:18:55.139Z,6.94
2023-04-14T05:21:22.181Z,7.10
2023-04-14T05:23:49.018Z,6.95
2023-04-14T05:28:46.470Z,7.05
2023-04-14T05:31:14.235Z,7.58
2023-04-14T05:33:40.824Z,7.63
2023-04-14T05:36:07.767Z,7.70
2023-04-14T05:38:37.712Z,7.71
2023-04-14T05:41:04.281Z,7.78
2023-04-14T05:43:30.843Z,7.85
2023-04-14T05:45:58.698Z,8.00
2023-04-14T05:48:28.449Z,7.83
2023-04-14T05:50:55.045Z,8.00
2023-04-14T05:53:21.743Z,8.19
2023-04-14T05:55:49.026Z,8.22
2023-04-14T05:58:15.592Z,8.32
2023-04-14T06:00:42.169Z,7.52
2023-04-14T06:03:09.153Z,8.49
2023-04-14T06:05:36.141Z,8.63
2023-04-14T06:08:03.847Z,8.64
2023-04-14T06:10:32.192Z,8.75
2023-04-14T06:12:58.854Z,8.71
2023-04-14T06:15:28.360Z,8.78
2023-04-14T06:17:55.181Z,8.43
2023-04-14T06:20:22.042Z,9.04
2023-04-14T06:22:48.620Z,9.24
2023-04-14T06:25:15.532Z,9.31
2023-04-14T06:27:42.092Z,9.33
2023-04-14T06:30:09.298Z,9.48
2023-04-14T06:32:35.990Z,9.57
2023-04-14T06:35:05.218Z,9.59
2023-04-14T06:37:32.385Z,9.62
2023-04-14T06:39:59.226Z,9.64
2023-04-14T06:42:25.942Z,9.63
2023-04-14T06:44:52.515Z,9.68
2023-04-14T06:47:20.113Z,9.92
2023-04-14T06:49:46.832Z,10.01
2023-04-14T06:52:13.432Z,9.96
2023-04-14T06:54:40.028Z,10.03
2023-04-14T06:57:06.807Z,10.00
2023-04-14T06:59:33.393Z,10.17
2023-04-14T07:02:00.201Z,10.26
2023-04-14T07:04:26.969Z,9.99
2023-04-14T07:06:53.624Z,10.41
2023-04-14T07:09:21.323Z,10.52
2023-04-14T07:11:48.120Z,10.71
2023-04-14T07:14:14.825Z,10.78
2023-04-14T07:16:41.364Z,10.66
2023-04-14T07:19:08.713Z,10.84
2023-04-14T07:21:35.350Z,11.00
2023-04-14T07:24:02.326Z,11.09
2023-04-14T07:26:29.159Z,11.26
2023-04-14T07:28:56.217Z,11.05
2023-04-14T07:31:23.128Z,10.99
2023-04-14T07:33:49.873Z,11.35
2023-04-14T07:36:16.452Z,11.34
2023-04-14T07:38:43.959Z,11.24
2023-04-14T07:41:10.614Z,11.59
2023-04-14T07:43:37.419Z,11.82
2023-04-14T07:46:08.338Z,11.81
2023-04-14T07:48:37.022Z,11.90
2023-04-14T07:51:05.190Z,11.96
2023-04-14T07:53:32.967Z,11.73
2023-04-14T07:55:59.831Z,12.15
2023-04-14T07:58:29.028Z,12.23
2023-04-14T08:00:56.172Z,12.42
2023-04-14T08:03:22.993Z,12.74
2023-04-14T08:05:49.868Z,12.75
2023-04-14T08:08:16.690Z,13.07
2023-04-14T08:10:43.242Z,13.08
2023-04-14T08:13:10.193Z,13.51
2023-04-14T08:15:36.990Z,13.60
2023-04-14T08:18:03.711Z,13.90
2023-04-14T08:20:30.342Z,14.10
2023-04-14T08:22:57.214Z,14.36
2023-04-14T08:25:24.503Z,14.50
2023-04-14T08:27:51.182Z,14.67
2023-04-14T08:30:17.834Z,15.32
2023-04-14T08:32:44.619Z,15.35
2023-04-14T08:35:37.480Z,15.05
2023-04-14T08:38:01.366Z,15.69
2023-04-14T08:40:38.456Z,15.55
2023-04-14T08:43:05.954Z,15.93
2023-04-14T08:45:33.720Z,15.79
2023-04-14T08:48:01.407Z,15.87
2023-04-14T08:50:33.963Z,16.24
2023-04-14T08:53:04.310Z,16.37
2023-04-14T08:55:32.583Z,16.44
2023-04-14T08:58:01.568Z,16.31
2023-04-14T09:00:28.329Z,16.29
2023-04-14T09:02:56.889Z,16.34
2023-04-14T09:05:24.058Z,16.33
2023-04-14T09:07:53.144Z,16.69
2023-04-14T09:10:21.520Z,16.94
2023-04-14T09:12:48.530Z,17.00
2023-04-14T09:15:16.724Z,16.62
2023-04-14T09:17:44.208Z,16.90
2023-04-14T09:20:34.614Z,16.84
2023-04-14T09:22:59.466Z,16.68
2023-04-14T09:25:26.601Z,17.04
2023-04-14T09:27:53.412Z,16.56
2023-04-14T09:30:52.315Z,17.05
2023-04-14T09:35:50.540Z,17.23
2023-04-14T09:38:36.657Z,17.04
2023-04-14T09:41:05.571Z,17.62
2023-04-14T09:43:32.456Z,17.67
2023-04-14T09:46:05.664Z,17.76
2023-04-14T09:48:32.632Z,17.61
2023-04-14T09:51:07.423Z,17.91
2023-04-14T09:53:38.174Z,18.51
2023-04-14T09:56:07.265Z,18.38
2023-04-14T09:58:39.757Z,18.60
2023-04-14T10:01:16.533Z,18.38
2023-04-14T10:03:45.696Z,18.17
2023-04-14T10:06:18.382Z,18.42
2023-04-14T10:08:48.864Z,18.38
2023-04-14T10:11:19.806Z,18.37
2023-04-14T10:13:48.500Z,18.43
2023-04-14T10:16:16.014Z,18.54
2023-04-14T10:18:43.519Z,18.41
2023-04-14T10:21:11.687Z,18.81
2023-04-14T10:23:39.632Z,18.87
2023-04-14T10:26:07.931Z,19.08
2023-04-14T10:28:36.388Z,19.08
2023-04-14T10:31:08.396Z,19.38
2023-04-14T10:33:38.323Z,19.12
2023-04-14T10:36:05.504Z,18.43
2023-04-14T10:38:46.059Z,18.64
2023-04-14T10:41:13.180Z,18.59
2023-04-14T10:43:40.458Z,19.26
2023-04-14T10:46:08.543Z,19.71
2023-04-14T10:48:37.948Z,19.56
2023-04-14T10:51:09.931Z,20.13
2023-04-14T10:53:45.898Z,19.79
2023-04-14T10:56:12.842Z,20.12
2023-04-14T10:58:39.825Z,19.92
2023-04-14T11:01:31.218Z,20.99
2023-04-14T11:04:11.584Z,21.85
2023-04-14T11:06:47.938Z,21.87
2023-04-14T11:09:24.342Z,21.63
2023-04-14T11:11:51.814Z,21.96
2023-04-14T11:14:26.185Z,21.84
2023-04-14T11:17:03.762Z,20.93
2023-04-14T11:19:32.150Z,21.01
2023-04-14T11:21:59.222Z,21.10
2023-04-14T11:24:26.878Z,21.57
2023-04-14T11:26:54.862Z,21.41
2023-04-14T11:29:22.190Z,20.80
2023-04-14T11:32:05.918Z,21.02
2023-04-14T11:34:34.456Z,20.68
2023-04-14T11:37:04.720Z,20.10
2023-04-14T11:39:31.627Z,19.87
2023-04-14T11:42:01.572Z,20.48
2023-04-14T11:44:28.309Z,19.55
2023-04-14T11:46:54.982Z,19.06
2023-04-14T11:49:33.469Z,19.26
2023-04-14T11:52:05.870Z,19.35
2023-04-14T11:54:37.453Z,19.60
2023-04-14T11:57:10.064Z,19.40
2023-04-14T11:59:47.696Z,19.21
2023-04-14T12:02:20.079Z,19.23
2023-04-14T12:04:50.597Z,18.45
2023-04-14T12:07:19.058Z,18.74
2023-04-14T12:09:49.656Z,19.02
2023-04-14T12:12:20.363Z,19.40
2023-04-14T12:14:49.099Z,19.60
2023-04-14T12:17:17.350Z,19.46
2023-04-14T12:19:45.393Z,20.05
2023-04-14T12:22:13.332Z,18.83
2023-04-14T12:24:42.755Z,19.41
2023-04-14T12:27:10.334Z,18.91
2023-04-14T12:29:37.316Z,19.63
2023-04-14T12:32:11.142Z,18.57
2023-04-14T12:34:38.119Z,18.63
2023-04-14T12:37:12.274Z,18.97
2023-04-14T12:40:03.298Z,19.27
2023-04-14T12:42:47.709Z,19.59
2023-04-14T12:45:16.352Z,20.15
2023-04-14T12:47:53.248Z,20.48
2023-04-14T12:50:28.806Z,20.58
2023-04-14T12:52:56.869Z,20.64
2023-04-14T12:55:25.822Z,21.93
2023-04-14T12:57:53.978Z,22.79
2023-04-14T13:00:26.307Z,23.68
2023-04-14T13:02:53.052Z,24.15
2023-04-14T13:05:20.003Z,24.06
2023-04-14T13:07:46.818Z,23.81
2023-04-14T13:10:13.734Z,22.65
2023-04-14T13:12:40.615Z,22.40
2023-04-14T13:15:07.763Z,22.44
2023-04-14T13:17:34.635Z,22.14
2023-04-14T13:20:01.462Z,22.59
2023-04-14T13:22:28.104Z,22.93
2023-04-14T13:24:58.606Z,23.13
2023-04-14T13:27:25.561Z,23.11
2023-04-14T13:29:52.154Z,22.74
2023-04-14T13:32:20.291Z,23.32
2023-04-14T13:34:46.896Z,25.18
2023-04-14T13:37:13.555Z,26.38
2023-04-14T13:39:40.344Z,26.23
2023-04-14T13:42:06.996Z,27.76
2023-04-14T13:44:35.833Z,26.91
2023-04-14T13:47:02.866Z,25.98
2023-04-14T13:49:30.314Z,26.13
2023-04-14T13:51:56.912Z,26.32
2023-04-14T13:54:23.521Z,25.19
2023-04-14T13:56:50.133Z,24.36
2023-04-14T13:59:17.452Z,23.66
2023-04-14T14:01:44.158Z,23.89
2023-04-14T14:04:11.026Z,24.02
2023-04-14T14:06:37.773Z,26.23
2023-04-14T14:09:06.605Z,25.16
2023-04-14T14:11:35.023Z,24.18
2023-04-14T14:14:02.027Z,22.79
2023-04-14T14:16:36.665Z,21.96
2023-04-14T14:19:05.503Z,20.93
2023-04-14T14:21:32.053Z,21.24
2023-04-14T14:23:59.435Z,20.92
2023-04-14T14:26:26.608Z,20.51
2023-04-14T14:28:53.216Z,20.23
2023-04-14T14:31:19.815Z,20.08
2023-04-14T14:33:46.647Z,19.55
2023-04-14T14:36:15.166Z,18.83
2023-04-14T14:38:41.836Z,19.18
2023-04-14T14:41:08.495Z,19.60
2023-04-14T14:43:35.327Z,19.80
2023-04-14T14:46:02.382Z,20.38
2023-04-14T14:48:29.176Z,23.51
2023-04-14T14:50:55.985Z,25.79
2023-04-14T14:53:22.744Z,27.13
2023-04-14T14:55:49.339Z,28.85
2023-04-14T14:58:16.321Z,27.11
2023-04-14T15:00:42.883Z,25.38
2023-04-14T15:03:09.716Z,23.55
2023-04-14T15:05:38.469Z,22.04
2023-04-14T15:08:05.592Z,20.79
2023-04-14T15:10:32.178Z,19.94
2023-04-14T15:12:58.890Z,19.94
2023-04-14T15:15:25.534Z,19.42
2023-04-14T15:17:52.217Z,19.45
2023-04-14T15:20:18.874Z,20.36
2023-04-14T15:22:45.682Z,22.81
2023-04-14T15:25:12.545Z,21.40
2023-04-14T15:27:39.421Z,20.43
2023-04-14T15:30:07.063Z,19.74
2023-04-14T15:32:33.913Z,19.23
2023-04-14T15:35:03.202Z,19.46
2023-04-14T15:37:29.914Z,18.69
2023-04-14T15:39:56.945Z,19.10
2023-04-14T15:42:23.741Z,19.01
2023-04-14T15:44:52.016Z,18.85
2023-04-14T15:47:19.072Z,18.75
2023-04-14T15:49:49.997Z,19.70
2023-04-14T15:52:19.062Z,22.27
2023-04-14T15:54:45.678Z,24.04
2023-04-14T15:57:12.536Z,24.70
2023-04-14T15:59:39.193Z,27.36
2023-04-14T16:02:06.088Z,27.61
2023-04-14T16:04:32.808Z,26.51
2023-04-14T16:06:59.457Z,26.62
2023-04-14T16:09:26.941Z,26.08
2023-04-14T16:11:53.524Z,24.29
2023-04-14T16:14:20.090Z,24.12
2023-04-14T16:16:48.332Z,23.29
2023-04-14T16:19:17.583Z,22.23
2023-04-14T16:21:44.490Z,21.33
2023-04-14T16:24:11.368Z,20.93
2023-04-14T16:26:38.658Z,19.92
2023-04-14T16:29:05.510Z,19.25
2023-04-14T16:31:32.446Z,18.96
2023-04-14T16:33:59.287Z,17.79
2023-04-14T16:36:26.462Z,18.22
2023-04-14T16:38:53.162Z,17.74
2023-04-14T16:41:20.514Z,17.93
2023-04-14T16:43:47.668Z,17.95
2023-04-14T16:46:14.723Z,17.25
2023-04-14T16:48:41.544Z,16.69
2023-04-14T16:51:09.217Z,16.69
2023-04-14T16:53:36.732Z,17.00
2023-04-14T16:56:10.613Z,16.84
2023-04-14T16:58:39.019Z,15.83
2023-04-14T17:01:06.519Z,16.02
2023-04-14T17:03:34.018Z,16.20
2023-04-14T17:06:00.866Z,15.62
2023-04-14T17:08:27.694Z,15.30
2023-04-14T17:10:57.434Z,15.64
2023-04-14T17:13:24.112Z,15.40
2023-04-14T17:15:58.931Z,15.69
2023-04-14T17:18:34.738Z,15.47
2023-04-14T17:21:01.366Z,15.05
2023-04-14T17:23:28.049Z,15.22
2023-04-14T17:25:55.505Z,14.57
2023-04-14T17:28:22.908Z,14.91
2023-04-14T17:30:50.180Z,14.56
2023-04-14T17:33:17.650Z,14.57
2023-04-14T17:35:44.372Z,14.51
2023-04-14T17:38:10.948Z,14.62
2023-04-14T17:40:37.790Z,14.12
2023-04-14T17:43:07.513Z,13.49
2023-04-14T17:45:35.294Z,13.80
2023-04-14T17:48:01.937Z,13.71
2023-04-14T17:50:29.545Z,13.51
2023-04-14T17:52:57.658Z,13.37
2023-04-14T17:55:24.475Z,13.23
2023-04-14T17:57:51.741Z,13.09
2023-04-14T18:00:19.036Z,13.20
2023-04-14T18:02:45.818Z,13.19
2023-04-14T18:05:13.311Z,13.02
2023-04-14T18:07:42.236Z,12.64
2023-04-14T18:10:09.285Z,12.73
2023-04-14T18:12:36.829Z,12.43
2023-04-14T18:15:04.940Z,12.53
2023-04-14T18:17:31.627Z,12.17
2023-04-14T18:20:00.859Z,12.30
2023-04-14T18:22:27.622Z,12.39
2023-04-14T18:24:54.219Z,12.38
2023-04-14T18:29:51.374Z,11.92
2023-04-14T18:32:18.259Z,11.60
2023-04-14T18:34:45.023Z,11.97
2023-04-14T18:37:11.928Z,12.05
2023-04-14T18:39:38.785Z,12.00
2023-04-14T18:42:05.634Z,11.17
2023-04-14T18:44:32.819Z,11.90
2023-04-14T18:46:59.795Z,11.71
2023-04-14T18:49:26.366Z,11.74
2023-04-14T18:51:53.571Z,11.90
2023-04-14T18:54:21.982Z,11.53
2023-04-14T18:56:48.949Z,11.36
2023-04-14T18:59:15.635Z,11.42
2023-04-14T19:01:42.303Z,11.32
2023-04-14T19:04:09.085Z,11.19
2023-04-14T19:06:36.769Z,11.66
2023-04-14T19:09:04.678Z,11.77
2023-04-14T19:11:36.001Z,11.81
2023-04-14T19:14:04.811Z,11.86
2023-04-14T19:16:31.689Z,11.89
2023-04-14T19:18:58.983Z,11.83
2023-04-14T19:21:26.259Z,11.44
2023-04-14T19:23:54.662Z,11.69
2023-04-14T19:26:21.240Z,11.86
2023-04-14T19:28:47.998Z,12.13
2023-04-14T19:31:14.954Z,11.95
2023-04-14T19:33:42.052Z,12.13
2023-04-14T19:36:13.109Z,11.97
2023-04-14T19:38:39.759Z,11.11
2023-04-14T19:41:06.437Z,12.03
2023-04-14T19:43:33.075Z,12.01
2023-04-14T19:46:07.802Z,11.22
2023-04-14T19:48:34.767Z,11.71
2023-04-14T19:51:02.177Z,11.89
2023-04-14T19:53:29.045Z,11.99
2023-04-14T19:55:58.712Z,12.04
2023-04-14T19:58:26.966Z,11.80
2023-04-14T20:00:57.409Z,11.98
2023-04-14T20:03:25.087Z,11.82
2023-04-14T20:05:55.828Z,11.67
2023-04-14T20:08:23.592Z,11.72
2023-04-14T20:10:52.108Z,11.69
2023-04-14T20:13:23.279Z,11.08
2023-04-14T20:15:53.928Z,11.37
2023-04-14T20:18:22.874Z,11.56
2023-04-14T20:20:49.822Z,11.42
2023-04-14T20:23:16.444Z,11.55
2023-04-14T20:25:44.176Z,10.85
2023-04-14T20:28:10.780Z,11.42
2023-04-14T20:30:37.947Z,11.50
2023-04-14T20:33:04.744Z,11.17
2023-04-14T20:35:35.738Z,10.93
2023-04-14T20:38:02.768Z,11.42
2023-04-14T20:40:30.398Z,11.36
2023-04-14T20:42:57.134Z,10.99
2023-04-14T20:45:23.850Z,11.11
2023-04-14T20:47:51.074Z,11.42
2023-04-14T20:50:18.849Z,11.42
2023-04-14T20:52:46.702Z,11.47
2023-04-14T20:55:16.361Z,11.06
2023-04-14T20:57:43.310Z,11.45
2023-04-14T21:00:12.190Z,11.58
2023-04-14T21:02:39.166Z,11.65
2023-04-14T21:05:06.303Z,11.73
2023-04-14T21:07:35.085Z,11.51
2023-04-14T21:10:01.961Z,11.15
2023-04-14T21:12:35.934Z,11.57
2023-04-14T21:15:44.117Z,11.68
2023-04-14T21:17:52.503Z,11.49
2023-04-14T21:20:19.238Z,11.45
2023-04-14T21:22:46.176Z,11.80
2023-04-14T21:25:12.934Z,11.79
2023-04-14T21:27:39.846Z,11.79
2023-04-14T21:30:07.195Z,11.48
2023-04-14T21:32:34.387Z,11.22
2023-04-14T21:35:01.263Z,11.68
2023-04-14T21:37:27.958Z,11.65
2023-04-14T21:39:55.543Z,11.47
2023-04-14T21:42:22.451Z,11.55
2023-04-14T21:44:49.428Z,11.53
2023-04-14T21:47:16.499Z,11.53
2023-04-14T21:49:43.110Z,11.56
2023-04-14T21:52:10.287Z,11.18
2023-04-14T21:54:40.436Z,11.25
2023-04-14T21:57:07.875Z,11.54
2023-04-14T21:59:34.409Z,11.24
2023-04-14T22:02:01.277Z,11.44
2023-04-14T22:04:35.941Z,11.45
2023-04-14T22:07:03.326Z,11.17
2023-04-14T22:09:30.109Z,11.49
2023-04-14T22:11:57.779Z,10.98
2023-04-14T22:14:24.424Z,11.42
2023-04-14T22:16:51.035Z,11.43
2023-04-14T22:19:18.105Z,11.37
2023-04-14T22:21:44.656Z,11.35
2023-04-14T22:24:11.446Z,11.35
2023-04-14T22:26:38.078Z,11.45
2023-04-14T22:29:04.996Z,11.27
2023-04-14T22:31:32.380Z,11.49
2023-04-14T22:33:59.038Z,11.23
2023-04-14T22:36:25.676Z,10.85
2023-04-14T22:38:52.324Z,11.32
2023-04-14T22:41:18.908Z,11.32
2023-04-14T22:43:45.508Z,10.95
2023-04-14T22:46:12.217Z,11.06
2023-04-14T22:48:38.813Z,10.92
2023-04-14T22:51:05.659Z,11.25
2023-04-14T22:53:32.364Z,10.57
2023-04-14T22:55:59.009Z,11.30
2023-04-14T22:58:25.991Z,10.83
2023-04-14T23:00:52.780Z,11.30
2023-04-14T23:03:19.520Z,11.23
2023-04-14T23:05:46.449Z,11.35
2023-04-14T23:08:13.105Z,11.17
2023-04-14T23:10:39.651Z,11.20
2023-04-14T23:13:06.581Z,11.11
2023-04-14T23:15:33.284Z,11.05
2023-04-14T23:17:59.947Z,10.71
2023-04-14T23:20:27.186Z,11.00
2023-04-14T23:22:53.844Z,11.01
2023-04-14T23:25:20.381Z,10.93
2023-04-14T23:27:47.227Z,10.96
2023-04-14T23:30:14.344Z,10.49
2023-04-14T23:32:40.912Z,10.92
2023-04-14T23:35:08.027Z,10.86
2023-04-14T23:37:34.603Z,10.90
2023-04-14T23:40:01.231Z,10.65
2023-04-14T23:42:28.005Z,10.80
2023-04-14T23:44:54.590Z,10.82
2023-04-14T23:47:21.850Z,10.80
2023-04-14T23:49:48.532Z,10.66
2023-04-14T23:52:15.111Z,10.67
2023-04-14T23:54:41.970Z,10.77
2023-04-14T23:57:09.114Z,10.45
2023-04-14T23:59:36.334Z,10.32
